Time;durP1;ratioP1;P1;durP2;ratioP2;P2;SDS_P1;SDS_P2;PMS_P1;PMS_P2;Temp;Humidity;BMP_temperature;BMP_pressure;BME280_temperature;BME280_humidity;BME280_pressure;Samples;Min_cycle;Max_cycle;Signal;HPM_P1;HPM_P2
2023/03/17 00:00:52;;;;;;;6.75;4.45;;;6.30;1.00;;;;;;7371755;19;20010;-71
2023/03/17 00:03:25;;;;;;;5.70;4.15;;;6.30;1.00;;;;;;7371575;19;20014;-71
2023/03/17 00:05:56;;;;;;;8.55;4.32;;;6.30;1.00;;;;;;7373466;19;19999;-71
2023/03/17 00:08:29;;;;;;;8.27;4.53;;;6.30;1.00;;;;;;7392751;19;20014;-71
2023/03/17 00:11:01;;;;;;;8.02;4.95;;;6.20;1.00;;;;;;7371747;19;20046;-71
2023/03/17 00:13:32;;;;;;;7.38;4.97;;;6.10;1.00;;;;;;7369455;19;20060;-70
2023/03/17 00:16:03;;;;;;;7.50;4.90;;;6.10;1.00;;;;;;7376868;19;20003;-71
2023/03/17 00:18:34;;;;;;;8.35;4.55;;;6.00;1.00;;;;;;7404127;19;20076;-71
2023/03/17 00:21:04;;;;;;;5.95;4.18;;;6.00;1.00;;;;;;7406102;19;20014;-70
2023/03/17 00:23:34;;;;;;;8.38;4.63;;;6.10;1.00;;;;;;7417178;19;20013;-71
2023/03/17 00:26:07;;;;;;;6.70;4.95;;;6.00;1.00;;;;;;7373881;19;20035;-69
2023/03/17 00:28:37;;;;;;;6.60;5.20;;;6.00;1.00;;;;;;7370767;19;20019;-70
2023/03/17 00:31:15;;;;;;;6.55;4.35;;;6.10;1.00;;;;;;7372231;19;20011;-70
2023/03/17 00:33:47;;;;;;;5.75;3.92;;;6.10;1.00;;;;;;7370407;19;20022;-70
2023/03/17 00:36:20;;;;;;;6.28;4.55;;;6.00;1.00;;;;;;7373312;19;20467;-70
2023/03/17 00:38:49;;;;;;;6.65;4.22;;;6.10;1.00;;;;;;7372033;19;20024;-70
2023/03/17 00:41:22;;;;;;;9.27;4.38;;;6.10;1.00;;;;;;7392627;19;20363;-70
2023/03/17 00:43:52;;;;;;;8.55;4.68;;;6.10;1.00;;;;;;7368757;19;20522;-70
2023/03/17 00:46:26;;;;;;;7.65;4.80;;;6.10;1.00;;;;;;7370099;19;20017;-70
2023/03/17 00:48:56;;;;;;;6.25;4.32;;;6.00;1.00;;;;;;7369765;19;20025;-71
2023/03/17 00:51:26;;;;;;;8.18;4.78;;;6.00;1.00;;;;;;7369689;19;20018;-71
2023/03/17 00:53:56;;;;;;;7.47;4.55;;;6.00;1.00;;;;;;7369041;19;20021;-71
2023/03/17 00:56:28;;;;;;;6.38;4.57;;;6.00;1.00;;;;;;7389706;19;20474;-70
2023/03/17 00:58:58;;;;;;;6.18;4.40;;;6.00;1.00;;;;;;7370805;19;20026;-69
2023/03/17 01:01:28;;;;;;;5.93;4.65;;;6.00;1.00;;;;;;7369260;19;20148;-71
2023/03/17 01:03:58;;;;;;;6.57;4.57;;;6.00;1.00;;;;;;7368744;19;20018;-70
2023/03/17 01:06:28;;;;;;;7.05;4.32;;;5.90;1.00;;;;;;7368630;19;20018;-70
2023/03/17 01:08:58;;;;;;;6.03;4.60;;;6.00;1.00;;;;;;7368713;19;20039;-70
2023/03/17 01:11:30;;;;;;;7.53;4.45;;;5.90;1.00;;;;;;7390434;19;20348;-70
2023/03/17 01:14:00;;;;;;;6.50;4.40;;;5.90;1.00;;;;;;7367553;19;20126;-70
2023/03/17 01:16:30;;;;;;;6.78;4.63;;;6.00;1.00;;;;;;7367739;19;20476;-71
2023/03/17 01:19:00;;;;;;;6.68;4.40;;;5.90;1.00;;;;;;7369094;19;20566;-71
2023/03/17 01:21:30;;;;;;;6.13;4.20;;;5.90;1.00;;;;;;7368717;19;20710;-71
2023/03/17 01:24:00;;;;;;;8.57;4.15;;;5.90;1.00;;;;;;7368771;19;20320;-71
2023/03/17 01:26:32;;;;;;;9.00;4.97;;;6.00;1.00;;;;;;7390680;19;20112;-71
2023/03/17 01:29:03;;;;;;;7.57;4.50;;;5.90;1.00;;;;;;7368533;19;20013;-71
2023/03/17 01:31:33;;;;;;;8.25;4.38;;;5.90;1.00;;;;;;7368253;19;20017;-71
2023/03/17 01:34:04;;;;;;;6.43;4.78;;;5.90;1.00;;;;;;7367782;19;20071;-71
2023/03/17 01:36:36;;;;;;;7.85;4.80;;;6.00;1.00;;;;;;7368701;19;20489;-70
2023/03/17 01:39:06;;;;;;;5.85;4.55;;;6.00;1.00;;;;;;7369774;19;20021;-70
2023/03/17 01:41:39;;;;;;;7.30;4.82;;;6.00;1.00;;;;;;7389705;19;20085;-70
2023/03/17 01:44:15;;;;;;;6.80;4.45;;;6.00;1.00;;;;;;7368171;19;20082;-70
2023/03/17 01:46:46;;;;;;;7.57;4.15;;;6.00;1.00;;;;;;7369211;19;20505;-71
2023/03/17 01:49:26;;;;;;;7.68;4.43;;;6.10;1.00;;;;;;7366882;19;20499;-71
2023/03/17 01:52:06;;;;;;;5.43;4.00;;;6.10;1.00;;;;;;7368134;19;20050;-69
2023/03/17 01:54:41;;;;;;;6.45;4.40;;;6.10;1.00;;;;;;7368392;19;20010;-70
2023/03/17 01:57:20;;;;;;;7.82;4.18;;;6.20;1.00;;;;;;7368786;19;20013;-70
2023/03/17 01:59:54;;;;;;;5.72;4.00;;;6.20;1.00;;;;;;7367418;19;20015;-70
2023/03/17 02:02:27;;;;;;;5.97;4.40;;;6.30;1.00;;;;;;7388568;19;20035;-70
2023/03/17 02:04:57;;;;;;;6.78;4.32;;;6.30;1.00;;;;;;7368022;19;20011;-70
2023/03/17 02:07:28;;;;;;;5.50;3.60;;;6.30;1.00;;;;;;7367909;19;20014;-70
2023/03/17 02:09:59;;;;;;;5.88;4.30;;;6.30;1.00;;;;;;7365983;19;20017;-70
2023/03/17 02:12:31;;;;;;;6.20;4.13;;;6.30;1.00;;;;;;7367001;19;20026;-71
2023/03/17 02:15:02;;;;;;;5.95;3.90;;;6.20;1.00;;;;;;7368313;19;20113;-71
2023/03/17 02:17:32;;;;;;;5.03;3.60;;;6.30;1.00;;;;;;7389432;19;20357;-71
2023/03/17 02:20:14;;;;;;;6.47;4.25;;;6.30;1.00;;;;;;7365356;19;20025;-70
2023/03/17 02:22:51;;;;;;;7.75;4.25;;;6.40;1.00;;;;;;7366536;19;20562;-70
2023/03/17 02:25:22;;;;;;;5.07;3.88;;;6.30;1.00;;;;;;7363092;19;20023;-70
2023/03/17 02:27:58;;;;;;;6.88;4.28;;;6.20;1.00;;;;;;7369047;19;20344;-70
2023/03/17 02:30:28;;;;;;;7.60;4.30;;;6.10;1.00;;;;;;7366309;19;20014;-70
2023/03/17 02:32:58;;;;;;;6.30;4.28;;;6.10;1.00;;;;;;7365843;19;20078;-71
2023/03/17 02:35:28;;;;;;;5.47;3.92;;;6.00;1.00;;;;;;7389603;19;20493;-70
2023/03/17 02:38:00;;;;;;;5.28;3.83;;;6.00;1.00;;;;;;7368137;19;20010;-70
2023/03/17 02:40:31;;;;;;;7.22;4.55;;;5.90;1.00;;;;;;7365438;19;20035;-70
2023/03/17 02:43:01;;;;;;;8.68;4.53;;;5.90;1.00;;;;;;7367014;19;20010;-70
2023/03/17 02:45:31;;;;;;;8.02;4.93;;;5.90;1.00;;;;;;7366599;19;20007;-70
2023/03/17 02:48:02;;;;;;;7.28;4.65;;;5.90;1.00;;;;;;7367743;19;20511;-71
2023/03/17 02:50:32;;;;;;;8.20;5.57;;;6.00;1.00;;;;;;7385845;19;20114;-70
2023/03/17 02:53:06;;;;;;;5.72;4.60;;;6.00;1.00;;;;;;7365847;19;20017;-71
2023/03/17 02:55:36;;;;;;;10.70;4.95;;;6.00;1.00;;;;;;7366374;19;20022;-69
2023/03/17 02:58:06;;;;;;;9.65;5.95;;;5.90;1.00;;;;;;7367834;19;20014;-71
2023/03/17 03:00:37;;;;;;;12.85;6.10;;;5.90;1.00;;;;;;7365098;19;20037;-70
2023/03/17 03:03:07;;;;;;;9.93;5.50;;;5.90;1.00;;;;;;7365012;19;20017;-70
2023/03/17 03:05:37;;;;;;;7.82;5.18;;;5.90;1.00;;;;;;7386003;19;20078;-70
2023/03/17 03:08:09;;;;;;;9.50;5.80;;;5.90;1.00;;;;;;7366885;19;20018;-70
2023/03/17 03:10:40;;;;;;;9.55;6.15;;;5.90;1.00;;;;;;7363987;19;20401;-70
2023/03/17 03:13:10;;;;;;;8.07;5.60;;;5.90;1.00;;;;;;7365173;19;20010;-70
2023/03/17 03:15:42;;;;;;;9.35;5.82;;;5.90;1.00;;;;;;7364864;19;20010;-70
2023/03/17 03:18:12;;;;;;;11.25;6.72;;;5.90;1.00;;;;;;7366246;19;20040;-71
2023/03/17 03:20:44;;;;;;;12.70;6.75;;;5.80;1.00;;;;;;7363736;19;20038;-70
2023/03/17 03:23:17;;;;;;;9.93;6.30;;;5.80;1.00;;;;;;7386914;19;20010;-70
2023/03/17 03:25:47;;;;;;;12.32;6.68;;;5.70;1.00;;;;;;7365868;19;20010;-70
2023/03/17 03:28:18;;;;;;;9.40;6.57;;;5.70;1.00;;;;;;7366801;19;20056;-70
2023/03/17 03:30:47;;;;;;;9.48;6.10;;;5.70;1.00;;;;;;7364592;19;20026;-70
2023/03/17 03:33:18;;;;;;;8.98;6.10;;;5.70;1.00;;;;;;7364547;19;20007;-70
2023/03/17 03:35:48;;;;;;;10.90;6.38;;;5.60;1.00;;;;;;7367266;19;20355;-73
2023/03/17 03:38:20;;;;;;;8.80;5.93;;;5.50;1.00;;;;;;7396485;19;20046;-71
2023/03/17 03:40:50;;;;;;;9.40;6.13;;;5.50;1.00;;;;;;7372777;19;20143;-70
2023/03/17 03:43:20;;;;;;;11.55;6.88;;;5.50;1.00;;;;;;7374429;19;20094;-70
2023/03/17 03:45:53;;;;;;;10.43;6.97;;;5.50;1.00;;;;;;7374742;19;20015;-70
2023/03/17 03:48:24;;;;;;;8.93;6.50;;;5.50;1.00;;;;;;7372040;19;20010;-70
2023/03/17 03:50:57;;;;;;;8.43;6.13;;;5.40;1.00;;;;;;7370249;19;20066;-70
2023/03/17 03:53:31;;;;;;;12.02;6.88;;;5.30;1.00;;;;;;7409942;19;20019;-70
2023/03/17 03:56:00;;;;;;;10.85;6.85;;;5.20;1.00;;;;;;7407688;19;20036;-70
2023/03/17 03:58:30;;;;;;;10.60;6.65;;;5.20;1.00;;;;;;7406213;19;20006;-70
2023/03/17 04:01:00;;;;;;;8.82;6.13;;;5.20;1.00;;;;;;7384887;19;20015;-70
2023/03/17 04:03:30;;;;;;;13.90;7.65;;;5.30;1.00;;;;;;7374167;19;20046;-71
2023/03/17 04:06:00;;;;;;;12.00;6.63;;;5.20;1.00;;;;;;7375064;19;20094;-70
2023/03/17 04:08:33;;;;;;;11.05;6.10;;;5.10;1.00;;;;;;7393407;19;20026;-70
2023/03/17 04:11:02;;;;;;;12.75;6.97;;;5.10;1.00;;;;;;7369208;19;20010;-70
2023/03/17 04:13:32;;;;;;;9.40;6.43;;;5.00;1.00;;;;;;7369992;19;20014;-70
2023/03/17 04:16:02;;;;;;;12.48;6.45;;;5.00;1.00;;;;;;7371784;19;20017;-71
2023/03/17 04:18:32;;;;;;;8.73;6.65;;;5.00;1.00;;;;;;7371530;19;20015;-68
2023/03/17 04:21:02;;;;;;;10.45;6.05;;;4.90;1.00;;;;;;7372045;19;20018;-68
2023/03/17 04:23:35;;;;;;;8.98;6.25;;;4.80;1.00;;;;;;7390383;19;20015;-70
2023/03/17 04:26:05;;;;;;;9.50;6.60;;;4.80;1.00;;;;;;7371752;19;20021;-69
2023/03/17 04:28:35;;;;;;;10.45;5.95;;;4.80;1.00;;;;;;7371101;19;20014;-70
2023/03/17 04:31:05;;;;;;;8.52;6.05;;;4.80;1.00;;;;;;7374714;19;20034;-70
2023/03/17 04:33:35;;;;;;;8.60;6.10;;;4.80;1.00;;;;;;7369242;19;20012;-71
2023/03/17 04:36:06;;;;;;;10.43;6.45;;;4.70;1.00;;;;;;7370839;19;20010;-69
2023/03/17 04:38:39;;;;;;;10.45;5.70;;;4.70;1.00;;;;;;7392398;19;20011;-70
2023/03/17 04:41:09;;;;;;;10.73;6.75;;;4.70;1.00;;;;;;7371660;19;20015;-70
2023/03/17 04:43:38;;;;;;;9.70;6.10;;;4.70;1.00;;;;;;7368024;19;20010;-70
2023/03/17 04:46:08;;;;;;;10.57;6.30;;;4.70;1.00;;;;;;7369972;19;20014;-70
2023/03/17 04:48:38;;;;;;;12.15;6.70;;;4.70;1.00;;;;;;7368134;19;20049;-70
2023/03/17 04:51:08;;;;;;;13.98;6.50;;;4.70;1.00;;;;;;7369967;19;20010;-71
2023/03/17 04:53:43;;;;;;;9.35;6.20;;;4.60;1.00;;;;;;7384710;19;20530;-67
2023/03/17 04:56:13;;;;;;;10.98;7.20;;;4.60;1.00;;;;;;7393467;19;20003;-69
2023/03/17 04:58:43;;;;;;;11.82;6.85;;;4.50;1.00;;;;;;7368995;19;20010;-69
2023/03/17 05:01:13;;;;;;;11.93;6.32;;;4.50;1.00;;;;;;7368979;19;20030;-69
2023/03/17 05:03:44;;;;;;;9.80;7.25;;;4.60;1.00;;;;;;7368047;19;20021;-69
2023/03/17 05:06:14;;;;;;;11.05;6.50;;;4.60;1.00;;;;;;7371005;19;20015;-70
2023/03/17 05:08:46;;;;;;;9.27;6.13;;;4.50;1.00;;;;;;7369632;19;20046;-69
2023/03/17 05:11:16;;;;;;;9.55;6.07;;;4.40;1.00;;;;;;7390158;19;20038;-70
2023/03/17 05:13:47;;;;;;;8.82;5.97;;;4.50;1.00;;;;;;7367421;19;20015;-70
2023/03/17 05:16:17;;;;;;;10.32;6.32;;;4.40;1.00;;;;;;7369620;19;20011;-70
2023/03/17 05:18:47;;;;;;;10.50;6.50;;;4.40;1.00;;;;;;7370339;19;20367;-69
2023/03/17 05:21:17;;;;;;;10.50;6.47;;;4.40;1.00;;;;;;7370223;19;20017;-70
2023/03/17 05:23:49;;;;;;;11.73;6.60;;;4.30;1.00;;;;;;7366858;19;20015;-69
2023/03/17 05:26:20;;;;;;;11.60;6.22;;;4.30;1.00;;;;;;7390067;19;20513;-69
2023/03/17 05:28:50;;;;;;;9.57;6.30;;;4.30;1.00;;;;;;7368877;19;20496;-69
2023/03/17 05:31:20;;;;;;;11.30;5.95;;;4.30;1.00;;;;;;7366332;19;20011;-69
2023/03/17 05:33:50;;;;;;;13.82;6.00;;;4.40;1.00;;;;;;7368850;19;20518;-69
2023/03/17 05:36:20;;;;;;;12.40;6.20;;;4.40;1.00;;;;;;7366691;19;20012;-69
2023/03/17 05:38:52;;;;;;;12.07;6.15;;;4.40;1.00;;;;;;7368430;19;20737;-69
2023/03/17 05:41:22;;;;;;;13.10;6.20;;;4.30;1.00;;;;;;7388603;19;20010;-69
2023/03/17 05:43:52;;;;;;;10.55;5.78;;;4.40;1.00;;;;;;7367689;19;20013;-69
2023/03/17 05:46:22;;;;;;;13.05;6.03;;;4.40;1.00;;;;;;7366895;19;20029;-69
2023/03/17 05:48:52;;;;;;;9.23;5.88;;;4.50;1.00;;;;;;7367671;19;20086;-69
2023/03/17 05:51:21;;;;;;;14.13;6.50;;;4.60;1.00;;;;;;7365858;19;20010;-69
2023/03/17 05:53:54;;;;;;;8.95;5.75;;;4.70;1.00;;;;;;7365750;19;20011;-70
2023/03/17 05:56:25;;;;;;;8.98;5.60;;;4.70;1.00;;;;;;7389062;19;20017;-68
2023/03/17 05:59:04;;;;;;;11.73;6.07;;;4.70;1.00;;;;;;7367243;19;20014;-69
2023/03/17 06:01:34;;;;;;;8.88;5.40;;;4.70;1.00;;;;;;7365689;19;20033;-70
2023/03/17 06:04:03;;;;;;;8.50;5.35;;;4.80;1.00;;;;;;7366925;19;20114;-69
2023/03/17 06:06:33;;;;;;;8.27;5.90;;;4.90;1.00;;;;;;7366586;19;20010;-69
2023/03/17 06:09:06;;;;;;;11.65;5.40;;;5.00;1.00;;;;;;7368034;19;20011;-69
2023/03/17 06:11:36;;;;;;;9.48;5.70;;;5.10;1.00;;;;;;7386985;19;20089;-68
2023/03/17 06:14:06;;;;;;;11.00;6.35;;;5.20;1.00;;;;;;7365709;19;20530;-70
2023/03/17 06:16:36;;;;;;;8.77;5.05;;;5.40;1.00;;;;;;7366474;19;20080;-69
2023/03/17 06:19:06;;;;;;;10.20;5.60;;;5.60;1.00;;;;;;7366454;19;20387;-69
2023/03/17 06:21:36;;;;;;;10.30;5.53;;;5.70;1.00;;;;;;7364906;19;20014;-69
2023/03/17 06:24:10;;;;;;;9.02;5.53;;;5.80;1.00;;;;;;7365965;19;20621;-69
2023/03/17 06:26:41;;;;;;;10.55;5.90;;;5.90;1.00;;;;;;7387641;19;20029;-70
2023/03/17 06:29:11;;;;;;;13.15;5.80;;;5.90;1.00;;;;;;7387770;19;20003;-71
2023/03/17 06:31:49;;;;;;;12.10;6.55;;;5.90;1.00;;;;;;7364462;19;20026;-69
2023/03/17 06:34:18;;;;;;;8.93;5.72;;;6.00;1.00;;;;;;7366728;19;20031;-68
2023/03/17 06:36:48;;;;;;;7.50;5.25;;;5.90;1.00;;;;;;7364566;19;20014;-69
2023/03/17 06:39:21;;;;;;;9.90;5.28;;;6.00;1.00;;;;;;7366464;19;20502;-70
2023/03/17 06:41:50;;;;;;;9.68;5.75;;;6.00;1.00;;;;;;7365663;19;20026;-69
2023/03/17 06:44:20;;;;;;;8.02;5.32;;;6.10;1.00;;;;;;7385431;19;20013;-69
2023/03/17 06:46:51;;;;;;;7.30;5.32;;;6.10;1.00;;;;;;7365557;19;20015;-69
2023/03/17 06:49:21;;;;;;;8.30;5.40;;;6.20;1.00;;;;;;7363442;19;20424;-69
2023/03/17 06:51:51;;;;;;;8.70;5.47;;;6.30;1.00;;;;;;7363218;19;20010;-70
2023/03/17 06:54:24;;;;;;;10.35;5.55;;;6.40;1.00;;;;;;7364700;19;20006;-70
2023/03/17 06:56:54;;;;;;;7.10;4.70;;;6.60;1.00;;;;;;7366672;19;20359;-70
2023/03/17 06:59:25;;;;;;;7.63;5.25;;;6.70;1.00;;;;;;7384843;19;20025;-70
2023/03/17 07:01:55;;;;;;;9.88;5.68;;;6.80;1.00;;;;;;7364660;19;20011;-69
2023/03/17 07:04:24;;;;;;;7.32;5.05;;;7.00;1.00;;;;;;7365858;19;20025;-70
2023/03/17 07:06:54;;;;;;;8.65;5.55;;;7.10;1.00;;;;;;7365789;19;20018;-69
2023/03/17 07:09:27;;;;;;;7.60;4.85;;;7.20;1.00;;;;;;7365349;19;20018;-70
2023/03/17 07:11:57;;;;;;;9.07;4.88;;;7.30;1.00;;;;;;7369019;19;20024;-69
2023/03/17 07:14:27;;;;;;;5.57;4.43;;;7.40;1.00;;;;;;7394350;19;20019;-69
2023/03/17 07:16:57;;;;;;;8.18;5.03;;;7.50;1.00;;;;;;7374865;19;20014;-70
2023/03/17 07:19:26;;;;;;;8.80;5.30;;;7.50;1.00;;;;;;7372552;19;20027;-71
2023/03/17 07:21:57;;;;;;;8.35;4.88;;;7.70;1.00;;;;;;7374764;19;20014;-70
2023/03/17 07:24:30;;;;;;;8.95;5.70;;;7.80;1.00;;;;;;7372656;19;20018;-68
2023/03/17 07:27:00;;;;;;;8.75;5.53;;;7.80;1.00;;;;;;7371705;19;20015;-70
2023/03/17 07:29:31;;;;;;;9.35;5.53;;;7.90;1.00;;;;;;7393939;19;20021;-70
2023/03/17 07:32:01;;;;;;;7.93;5.03;;;8.00;1.00;;;;;;7403631;19;20006;-69
2023/03/17 07:34:31;;;;;;;8.55;5.10;;;8.20;1.00;;;;;;7405487;19;20026;-69
2023/03/17 07:37:01;;;;;;;9.93;5.47;;;8.20;1.00;;;;;;7396331;19;20031;-69
2023/03/17 07:39:33;;;;;;;8.40;5.55;;;8.20;1.00;;;;;;7372829;19;20014;-70
2023/03/17 07:42:03;;;;;;;5.82;4.25;;;8.10;1.00;;;;;;7372371;19;20485;-70
2023/03/17 07:44:33;;;;;;;7.97;4.50;;;8.20;1.00;;;;;;7393307;19;20134;-69
2023/03/17 07:47:03;;;;;;;8.57;5.30;;;8.40;1.00;;;;;;7369189;19;20017;-69
2023/03/17 07:49:33;;;;;;;9.63;5.20;;;8.40;1.00;;;;;;7368336;19;20029;-69
2023/03/17 07:52:11;;;;;;;6.63;5.00;;;8.70;1.00;;;;;;7368315;19;20034;-69
2023/03/17 07:54:44;;;;;;;12.57;5.15;;;8.80;1.00;;;;;;7372183;19;20014;-70
2023/03/17 07:57:15;;;;;;;7.75;4.63;;;9.00;1.00;;;;;;7372097;19;20018;-70
2023/03/17 07:59:46;;;;;;;6.35;4.22;;;9.00;1.00;;;;;;7369503;19;20014;-69
2023/03/17 08:02:17;;;;;;;6.32;4.28;;;9.00;1.00;;;;;;7391589;19;20029;-69
2023/03/17 08:04:47;;;;;;;7.25;4.45;;;9.00;1.00;;;;;;7370848;19;20010;-69
2023/03/17 08:07:17;;;;;;;7.65;4.72;;;9.20;1.00;;;;;;7371272;19;20364;-69
2023/03/17 08:09:50;;;;;;;10.95;5.30;;;9.30;1.00;;;;;;7369948;19;20031;-70
2023/03/17 08:12:19;;;;;;;8.55;4.63;;;9.30;1.00;;;;;;7369909;19;20037;-70
2023/03/17 08:14:49;;;;;;;11.15;4.85;;;9.40;1.00;;;;;;7370055;19;20526;-71
2023/03/17 08:17:20;;;;;;;7.18;4.57;;;9.50;1.00;;;;;;7393738;19;20014;-69
2023/03/17 08:19:50;;;;;;;11.43;4.68;;;9.80;1.00;;;;;;7368061;19;20017;-70
2023/03/17 08:22:19;;;;;;;8.80;4.78;;;10.00;1.00;;;;;;7366592;19;20014;-70
2023/03/17 08:24:52;;;;;;;10.00;5.03;;;10.00;1.00;;;;;;7370757;19;20018;-70
2023/03/17 08:27:22;;;;;;;6.45;4.55;;;10.00;1.00;;;;;;7368249;19;20475;-69
2023/03/17 08:29:52;;;;;;;7.82;4.40;;;10.00;1.00;;;;;;7368871;19;20018;-70
2023/03/17 08:32:22;;;;;;;7.32;4.65;;;9.90;1.00;;;;;;7388726;19;20014;-70
2023/03/17 08:34:55;;;;;;;7.68;4.47;;;10.20;1.00;;;;;;7368051;19;20038;-69
2023/03/17 08:37:24;;;;;;;8.18;4.70;;;10.30;1.00;;;;;;7369953;19;20017;-70
2023/03/17 08:39:57;;;;;;;8.95;5.07;;;10.50;1.00;;;;;;7368778;19;20018;-70
2023/03/17 08:42:27;;;;;;;7.70;4.80;;;10.60;1.00;;;;;;7366207;19;20074;-69
2023/03/17 08:44:57;;;;;;;7.50;4.82;;;10.60;1.00;;;;;;7369274;19;20042;-69
2023/03/17 08:47:27;;;;;;;10.65;5.80;;;10.70;1.00;;;;;;7391939;19;20034;-69
2023/03/17 08:49:59;;;;;;;10.93;5.32;;;10.70;1.00;;;;;;7367302;19;20111;-70
2023/03/17 08:52:29;;;;;;;11.02;5.35;;;11.00;1.00;;;;;;7365527;19;20017;-69
2023/03/17 08:55:01;;;;;;;12.95;4.72;;;11.10;1.00;;;;;;7367954;19;20006;-68
2023/03/17 08:57:31;;;;;;;7.18;4.80;;;11.00;1.00;;;;;;7369399;19;20014;-69
2023/03/17 09:00:00;;;;;;;9.20;5.63;;;11.30;1.00;;;;;;7367339;19;20561;-69
2023/03/17 09:02:30;;;;;;;7.80;5.03;;;11.10;1.00;;;;;;7388636;19;20011;-70
2023/03/17 09:05:01;;;;;;;9.02;4.50;;;11.30;1.00;;;;;;7366486;19;20537;-69
2023/03/17 09:07:31;;;;;;;6.97;4.30;;;11.60;1.00;;;;;;7368691;19;20470;-69
2023/03/17 09:10:05;;;;;;;9.65;4.65;;;11.70;1.00;;;;;;7365437;19;20055;-69
2023/03/17 09:12:36;;;;;;;7.93;4.72;;;11.90;1.00;;;;;;7363074;19;20015;-69
2023/03/17 09:15:06;;;;;;;8.02;4.32;;;11.90;1.00;;;;;;7366366;19;20014;-72
2023/03/17 09:17:36;;;;;;;7.45;4.32;;;12.00;1.00;;;;;;7389769;19;20026;-69
2023/03/17 09:20:08;;;;;;;7.22;4.80;;;12.10;1.00;;;;;;7364397;19;20518;-69
2023/03/17 09:22:37;;;;;;;5.97;3.90;;;12.20;1.00;;;;;;7364431;19;20079;-68
2023/03/17 09:25:11;;;;;;;6.53;4.07;;;12.40;1.00;;;;;;7366629;19;20014;-68
2023/03/17 09:27:41;;;;;;;12.43;7.95;;;12.50;1.00;;;;;;7365738;19;20014;-70
2023/03/17 09:30:12;;;;;;;9.52;4.50;;;12.60;1.00;;;;;;7365001;19;20023;-69
2023/03/17 09:32:43;;;;;;;10.00;4.45;;;12.50;1.00;;;;;;7374232;19;20493;-69
2023/03/17 09:35:14;;;;;;;6.28;3.88;;;12.50;1.00;;;;;;7386790;19;20010;-69
2023/03/17 09:37:43;;;;;;;7.88;4.10;;;12.70;1.00;;;;;;7366914;19;20522;-69
2023/03/17 09:40:20;;;;;;;6.78;4.05;;;12.80;1.00;;;;;;7365194;19;20020;-69
2023/03/17 09:42:59;;;;;;;5.53;3.50;;;12.90;1.00;;;;;;7363330;19;20391;-69
2023/03/17 09:45:33;;;;;;;7.53;3.83;;;13.00;1.00;;;;;;7364560;19;20030;-69
2023/03/17 09:48:30;;;;;;;6.82;3.40;;;13.10;1.00;;;;;;7366829;19;20003;-69
2023/03/17 09:51:03;;;;;;;5.82;3.50;;;13.30;1.00;;;;;;7362960;19;20019;-69
2023/03/17 09:53:37;;;;;;;7.45;3.83;;;13.30;1.00;;;;;;7383949;19;20042;-69
2023/03/17 09:56:15;;;;;;;4.88;3.33;;;13.50;1.00;;;;;;7366220;19;20015;-68
2023/03/17 09:58:52;;;;;;;5.13;3.33;;;13.70;1.00;;;;;;7365443;19;20020;-69
2023/03/17 10:01:23;;;;;;;4.78;3.45;;;13.80;1.00;;;;;;7363137;19;20018;-69
2023/03/17 10:03:53;;;;;;;5.47;3.58;;;13.70;1.00;;;;;;7363039;19;20502;-69
2023/03/17 10:06:36;;;;;;;11.25;3.40;;;14.00;1.00;;;;;;7365847;19;20018;-70
2023/03/17 10:09:26;;;;;;;7.75;3.45;;;14.30;1.00;;;;;;7221228;19;2841426;-69
2023/03/17 10:12:06;;;;;;;4.55;3.17;;;14.30;1.00;;;;;;7366495;19;20018;-69
2023/03/17 10:14:46;;;;;;;5.35;3.05;;;14.50;1.00;;;;;;7386843;19;20026;-69
2023/03/17 10:17:21;;;;;;;5.05;2.75;;;14.60;1.00;;;;;;7365883;19;20011;-69
2023/03/17 10:19:59;;;;;;;7.00;3.17;;;14.60;1.00;;;;;;7364613;19;20081;-69
2023/03/17 10:22:33;;;;;;;7.88;3.20;;;14.20;1.00;;;;;;7365624;19;20007;-70
2023/03/17 10:25:08;;;;;;;6.93;3.30;;;14.40;1.00;;;;;;7365950;19;20014;-70
2023/03/17 10:27:42;;;;;;;4.88;2.85;;;14.50;1.00;;;;;;7366561;19;20026;-69
2023/03/17 10:30:17;;;;;;;6.13;3.00;;;14.80;1.00;;;;;;7365507;19;20014;-69
2023/03/17 10:32:47;;;;;;;5.53;3.03;;;14.90;1.00;;;;;;7365393;19;20007;-70
2023/03/17 10:35:18;;;;;;;5.70;2.78;;;14.90;1.00;;;;;;7385648;19;20021;-71
2023/03/17 10:37:49;;;;;;;8.45;4.82;;;14.90;1.00;;;;;;7366759;19;20006;-69
2023/03/17 10:40:30;;;;;;;7.18;3.00;;;14.90;1.00;;;;;;7364815;19;20070;-70
2023/03/17 10:43:07;;;;;;;5.40;2.65;;;15.00;1.00;;;;;;7365335;19;20014;-69
2023/03/17 10:45:40;;;;;;;5.22;2.15;;;15.00;1.00;;;;;;7365770;19;20358;-69
2023/03/17 10:48:19;;;;;;;8.32;2.42;;;15.00;1.00;;;;;;7374113;19;20010;-69
2023/03/17 10:50:49;;;;;;;5.88;2.72;;;14.90;1.00;;;;;;7371221;19;20018;-70
2023/03/17 10:53:26;;;;;;;4.05;2.35;;;15.00;1.00;;;;;;7392392;19;20014;-69
2023/03/17 10:56:01;;;;;;;3.67;2.20;;;15.10;1.00;;;;;;7373184;19;20011;-70
2023/03/17 10:58:41;;;;;;;4.32;2.38;;;15.40;1.00;;;;;;7372442;19;20032;-68
2023/03/17 11:01:22;;;;;;;3.80;2.30;;;15.50;1.00;;;;;;7371785;19;20461;-69
2023/03/17 11:03:52;;;;;;;5.30;2.30;;;15.60;1.00;;;;;;7371396;19;20083;-69
2023/03/17 11:06:32;;;;;;;4.30;3.05;;;16.00;1.00;;;;;;7371434;19;20018;-69
2023/03/17 11:09:11;;;;;;;7.70;3.22;;;16.20;1.00;;;;;;7373609;19;19999;-69
2023/03/17 11:11:46;;;;;;;3.10;2.17;;;16.50;1.00;;;;;;7394126;19;20483;-68
2023/03/17 11:14:21;;;;;;;5.57;2.25;;;16.50;1.00;;;;;;7370943;19;20011;-69
2023/03/17 11:16:55;;;;;;;3.72;2.15;;;16.30;1.00;;;;;;7372091;19;20010;-69
2023/03/17 11:19:33;;;;;;;6.78;2.75;;;16.30;1.00;;;;;;7370319;19;20421;-69
2023/03/17 11:22:10;;;;;;;3.30;2.22;;;16.60;1.00;;;;;;7372056;19;20122;-69
2023/03/17 11:24:55;;;;;;;3.20;2.17;;;16.50;1.00;;;;;;7371525;19;20074;-69
2023/03/17 11:27:32;;;;;;;5.20;2.50;;;16.80;1.00;;;;;;7370788;19;20117;-70
2023/03/17 11:30:18;;;;;;;5.72;2.65;;;16.70;1.00;;;;;;7370661;19;20388;-70
2023/03/17 11:32:58;;;;;;;4.93;2.50;;;16.70;1.00;;;;;;7370081;19;20017;-69
2023/03/17 11:35:43;;;;;;;5.07;2.17;;;16.60;1.00;;;;;;7391511;19;20014;-69
2023/03/17 11:38:25;;;;;;;3.03;2.13;;;16.60;1.00;;;;;;7371325;19;20016;-69
2023/03/17 11:41:26;;;;;;;4.60;2.38;;;16.70;1.00;;;;;;7370321;19;20021;-66
2023/03/17 11:44:25;;;;;;;2.90;2.13;;;16.80;1.00;;;;;;7368795;19;20018;-66
2023/03/17 11:47:04;;;;;;;5.65;2.55;;;16.70;1.00;;;;;;7371074;19;20010;-67
2023/03/17 11:49:38;;;;;;;5.25;1.98;;;16.90;1.00;;;;;;7369944;19;20011;-67
2023/03/17 11:52:18;;;;;;;3.40;1.95;;;17.00;1.00;;;;;;7368712;19;20042;-67
2023/03/17 11:54:54;;;;;;;3.28;2.17;;;17.20;1.00;;;;;;7369723;19;20090;-68
2023/03/17 11:57:32;;;;;;;2.85;2.05;;;17.10;1.00;;;;;;7371180;19;20436;-68
2023/03/17 12:00:06;;;;;;;4.22;2.10;;;17.00;1.00;;;;;;7369552;19;20101;-68
2023/03/17 12:02:46;;;;;;;3.58;2.17;;;17.10;1.00;;;;;;7391476;19;20010;-68
2023/03/17 12:05:21;;;;;;;3.13;1.90;;;17.10;1.00;;;;;;7370594;19;20012;-68
2023/03/17 12:07:54;;;;;;;4.88;1.77;;;17.30;1.00;;;;;;7371310;19;20021;-67
2023/03/17 12:10:29;;;;;;;5.72;2.05;;;17.60;1.00;;;;;;7368784;19;20013;-68
2023/03/17 12:13:03;;;;;;;4.63;2.15;;;17.90;1.00;;;;;;7369728;19;20010;-68
2023/03/17 12:15:38;;;;;;;4.30;1.85;;;17.80;1.00;;;;;;7367415;19;20485;-67
2023/03/17 12:18:12;;;;;;;;;;;17.70;1.00;;;;;;7370514;19;20015;-67
2023/03/17 12:20:49;;;;;;;4.20;1.63;;;17.70;1.00;;;;;;7380350;19;19970;-69
2023/03/17 12:23:30;;;;;;;4.40;1.75;;;17.60;1.00;;;;;;7393252;19;20015;-68
2023/03/17 12:26:04;;;;;;;3.58;1.75;;;17.80;1.00;;;;;;7369797;19;20014;-68
2023/03/17 12:28:43;;;;;;;1.73;1.50;;;17.70;1.00;;;;;;7370126;19;20010;-68
2023/03/17 12:31:17;;;;;;;2.80;1.73;;;17.60;1.00;;;;;;7368758;19;20028;-68
2023/03/17 12:33:56;;;;;;;4.57;2.00;;;17.70;1.00;;;;;;7369212;19;20014;-68
2023/03/17 12:36:26;;;;;;;3.80;2.13;;;18.00;1.00;;;;;;7369847;19;20021;-68
2023/03/17 12:39:04;;;;;;;3.45;1.88;;;18.10;1.00;;;;;;7369847;19;20025;-68
2023/03/17 12:42:00;;;;;;;6.53;2.22;;;18.20;1.00;;;;;;7389521;19;20018;-67
2023/03/17 12:44:49;;;;;;;3.33;1.90;;;18.20;1.00;;;;;;7367659;19;20015;-67
2023/03/17 12:47:37;;;;;;;2.85;1.60;;;18.20;1.00;;;;;;7368578;19;20010;-67
2023/03/17 12:50:45;;;;;;;4.10;1.90;;;18.20;1.00;;;;;;7364342;19;20018;-69
2023/03/17 12:53:28;;;;;;;5.45;1.98;;;18.20;1.00;;;;;;7366480;19;20007;-68
2023/03/17 12:56:01;;;;;;;4.47;1.80;;;18.10;1.00;;;;;;7365487;19;20502;-68
2023/03/17 12:58:35;;;;;;;5.28;1.50;;;18.20;1.00;;;;;;7365505;19;20757;-67
2023/03/17 13:01:16;;;;;;;3.67;1.63;;;18.30;1.00;;;;;;7366254;19;20493;-68
2023/03/17 13:04:02;;;;;;;2.45;1.73;;;18.40;1.00;;;;;;7367679;19;20074;-68
2023/03/17 13:06:37;;;;;;;3.53;1.50;;;18.30;1.00;;;;;;7364219;19;20470;-68
2023/03/17 13:09:35;;;;;;;8.55;1.98;;;18.30;1.00;;;;;;7362271;19;20029;-68
2023/03/17 13:12:07;;;;;;;4.03;1.48;;;18.30;1.00;;;;;;7367217;19;20010;-68
2023/03/17 13:14:43;;;;;;;2.47;1.40;;;18.40;1.00;;;;;;7386560;19;20031;-68
2023/03/17 13:17:32;;;;;;;6.45;1.58;;;18.50;1.00;;;;;;7365454;19;20015;-69
2023/03/17 13:20:15;;;;;;;2.78;1.67;;;18.60;1.00;;;;;;7364294;19;20019;-69
2023/03/17 13:23:05;;;;;;;2.20;1.38;;;18.50;1.00;;;;;;7367153;19;20007;-68
2023/03/17 13:25:52;;;;;;;5.40;1.75;;;18.50;1.00;;;;;;7366939;19;20093;-69
2023/03/17 13:28:27;;;;;;;2.85;1.38;;;18.50;1.00;;;;;;7366743;19;20512;-69
2023/03/17 13:31:09;;;;;;;2.08;1.17;;;18.50;1.00;;;;;;7364769;19;20010;-68
2023/03/17 13:33:45;;;;;;;2.45;1.55;;;18.30;1.00;;;;;;7366303;19;20014;-69